sensor_id;sensor_type;location;lat;lon;timestamp;temperature;humidity
22578;DHT22;11455;52.390;13.028;2022-08-19T00:01:38;24.90;99.90
22578;DHT22;11455;52.390;13.028;2022-08-19T00:04:06;24.90;99.90
22578;DHT22;11455;52.390;13.028;2022-08-19T00:06:31;24.90;99.90
22578;DHT22;11455;52.390;13.028;2022-08-19T00:09:00;24.90;99.90
22578;DHT22;11455;52.390;13.028;2022-08-19T00:11:26;24.70;99.90
22578;DHT22;11455;52.390;13.028;2022-08-19T00:13:53;24.50;99.90
22578;DHT22;11455;52.390;13.028;2022-08-19T00:16:19;24.40;99.90
22578;DHT22;11455;52.390;13.028;2022-08-19T00:18:46;24.30;99.90
22578;DHT22;11455;52.390;13.028;2022-08-19T00:21:11;24.20;99.90
22578;DHT22;11455;52.390;13.028;2022-08-19T00:23:37;24.10;99.90
22578;DHT22;11455;52.390;13.028;2022-08-19T00:26:03;24.10;99.90
22578;DHT22;11455;52.390;13.028;2022-08-19T00:28:29;24.20;99.90
22578;DHT22;11455;52.390;13.028;2022-08-19T00:30:55;24.30;99.90
22578;DHT22;11455;52.390;13.028;2022-08-19T00:33:21;24.50;99.90
22578;DHT22;11455;52.390;13.028;2022-08-19T00:35:47;24.60;99.90
22578;DHT22;11455;52.390;13.028;2022-08-19T00:38:13;24.40;99.90
22578;DHT22;11455;52.390;13.028;2022-08-19T00:40:39;24.30;99.90
22578;DHT22;11455;52.390;13.028;2022-08-19T00:43:11;24.20;99.90
22578;DHT22;11455;52.390;13.028;2022-08-19T00:45:38;24.20;99.90
22578;DHT22;11455;52.390;13.028;2022-08-19T00:48:06;24.10;99.90
22578;DHT22;11455;52.390;13.028;2022-08-19T00:50:32;24.00;99.90
22578;DHT22;11455;52.390;13.028;2022-08-19T00:52:58;23.90;99.90
22578;DHT22;11455;52.390;13.028;2022-08-19T00:55:26;23.70;99.90
22578;DHT22;11455;52.390;13.028;2022-08-19T00:58:01;23.60;99.90
22578;DHT22;11455;52.390;13.028;2022-08-19T01:00:28;23.50;99.90
22578;DHT22;11455;52.390;13.028;2022-08-19T01:02:56;23.60;99.90
22578;DHT22;11455;52.390;13.028;2022-08-19T01:05:26;23.60;99.90
22578;DHT22;11455;52.390;13.028;2022-08-19T01:07:53;23.70;99.90
22578;DHT22;11455;52.390;13.028;2022-08-19T01:10:20;23.70;99.90
22578;DHT22;11455;52.390;13.028;2022-08-19T01:12:47;23.70;99.90
22578;DHT22;11455;52.390;13.028;2022-08-19T01:15:14;23.90;99.90
22578;DHT22;11455;52.390;13.028;2022-08-19T01:17:40;24.20;99.90
22578;DHT22;11455;52.390;13.028;2022-08-19T01:20:11;24.50;99.90
22578;DHT22;11455;52.390;13.028;2022-08-19T01:22:39;24.80;99.90
22578;DHT22;11455;52.390;13.028;2022-08-19T01:25:09;24.80;99.90
22578;DHT22;11455;52.390;13.028;2022-08-19T01:27:43;24.90;99.90
22578;DHT22;11455;52.390;13.028;2022-08-19T01:30:12;24.80;99.90
22578;DHT22;11455;52.390;13.028;2022-08-19T01:32:38;24.80;99.90
22578;DHT22;11455;52.390;13.028;2022-08-19T01:35:04;24.70;99.90
22578;DHT22;11455;52.390;13.028;2022-08-19T01:37:40;24.50;99.90
22578;DHT22;11455;52.390;13.028;2022-08-19T01:40:06;24.40;99.90
22578;DHT22;11455;52.390;13.028;2022-08-19T01:42:33;24.10;99.90
22578;DHT22;11455;52.390;13.028;2022-08-19T01:45:00;23.90;99.90
22578;DHT22;11455;52.390;13.028;2022-08-19T01:47:25;23.70;99.90
22578;DHT22;11455;52.390;13.028;2022-08-19T01:49:51;23.70;99.90
22578;DHT22;11455;52.390;13.028;2022-08-19T01:52:19;23.70;99.90
22578;DHT22;11455;52.390;13.028;2022-08-19T01:54:45;23.60;99.90
22578;DHT22;11455;52.390;13.028;2022-08-19T01:57:11;23.60;99.90
22578;DHT22;11455;52.390;13.028;2022-08-19T01:59:37;23.60;99.90
22578;DHT22;11455;52.390;13.028;2022-08-19T02:02:06;23.60;99.90
22578;DHT22;11455;52.390;13.028;2022-08-19T02:04:33;23.40;99.90
22578;DHT22;11455;52.390;13.028;2022-08-19T02:06:59;23.30;99.90
22578;DHT22;11455;52.390;13.028;2022-08-19T02:09:25;23.10;99.90
22578;DHT22;11455;52.390;13.028;2022-08-19T02:11:50;23.20;99.90
22578;DHT22;11455;52.390;13.028;2022-08-19T02:14:16;23.20;99.90
22578;DHT22;11455;52.390;13.028;2022-08-19T02:16:41;23.10;99.90
22578;DHT22;11455;52.390;13.028;2022-08-19T02:19:07;23.10;99.90
22578;DHT22;11455;52.390;13.028;2022-08-19T02:21:33;23.00;1.00
22578;DHT22;11455;52.390;13.028;2022-08-19T02:23:59;22.90;1.00
22578;DHT22;11455;52.390;13.028;2022-08-19T02:26:24;23.00;1.00
22578;DHT22;11455;52.390;13.028;2022-08-19T02:28:51;23.00;1.00
22578;DHT22;11455;52.390;13.028;2022-08-19T02:31:18;23.00;1.00
22578;DHT22;11455;52.390;13.028;2022-08-19T02:33:45;22.90;1.00
22578;DHT22;11455;52.390;13.028;2022-08-19T02:36:11;22.80;1.00
22578;DHT22;11455;52.390;13.028;2022-08-19T02:38:37;22.80;1.00
22578;DHT22;11455;52.390;13.028;2022-08-19T02:41:04;22.80;1.00
22578;DHT22;11455;52.390;13.028;2022-08-19T02:43:33;22.70;1.00
22578;DHT22;11455;52.390;13.028;2022-08-19T02:46:02;22.50;1.00
22578;DHT22;11455;52.390;13.028;2022-08-19T02:48:28;22.40;1.00
22578;DHT22;11455;52.390;13.028;2022-08-19T02:50:53;22.30;1.00
22578;DHT22;11455;52.390;13.028;2022-08-19T02:53:23;22.30;1.00
22578;DHT22;11455;52.390;13.028;2022-08-19T02:55:49;22.30;1.00
22578;DHT22;11455;52.390;13.028;2022-08-19T02:58:15;22.40;1.00
22578;DHT22;11455;52.390;13.028;2022-08-19T03:00:44;22.40;1.00
22578;DHT22;11455;52.390;13.028;2022-08-19T03:03:10;22.50;1.00
22578;DHT22;11455;52.390;13.028;2022-08-19T03:05:36;22.50;1.00
22578;DHT22;11455;52.390;13.028;2022-08-19T03:08:02;22.50;1.00
22578;DHT22;11455;52.390;13.028;2022-08-19T03:10:28;22.60;1.00
22578;DHT22;11455;52.390;13.028;2022-08-19T03:12:54;22.60;1.00
22578;DHT22;11455;52.390;13.028;2022-08-19T03:15:19;22.70;1.00
22578;DHT22;11455;52.390;13.028;2022-08-19T03:17:45;22.70;1.00
22578;DHT22;11455;52.390;13.028;2022-08-19T03:20:13;22.80;1.00
22578;DHT22;11455;52.390;13.028;2022-08-19T03:22:39;22.80;1.00
22578;DHT22;11455;52.390;13.028;2022-08-19T03:25:04;22.80;1.00
22578;DHT22;11455;52.390;13.028;2022-08-19T03:27:30;22.70;1.00
22578;DHT22;11455;52.390;13.028;2022-08-19T03:29:56;22.80;1.00
22578;DHT22;11455;52.390;13.028;2022-08-19T03:32:21;22.70;1.00
22578;DHT22;11455;52.390;13.028;2022-08-19T03:34:47;22.60;1.00
22578;DHT22;11455;52.390;13.028;2022-08-19T03:37:13;22.70;1.00
22578;DHT22;11455;52.390;13.028;2022-08-19T03:39:39;22.70;1.00
22578;DHT22;11455;52.390;13.028;2022-08-19T03:42:05;22.80;1.00
22578;DHT22;11455;52.390;13.028;2022-08-19T03:44:31;22.90;1.00
22578;DHT22;11455;52.390;13.028;2022-08-19T03:46:58;22.80;1.00
22578;DHT22;11455;52.390;13.028;2022-08-19T03:49:24;22.90;1.00
22578;DHT22;11455;52.390;13.028;2022-08-19T03:51:50;22.90;1.00
22578;DHT22;11455;52.390;13.028;2022-08-19T03:54:20;22.90;1.00
22578;DHT22;11455;52.390;13.028;2022-08-19T03:56:51;22.80;1.00
22578;DHT22;11455;52.390;13.028;2022-08-19T03:59:18;22.70;1.00
22578;DHT22;11455;52.390;13.028;2022-08-19T04:01:44;22.70;1.00
22578;DHT22;11455;52.390;13.028;2022-08-19T04:04:09;22.70;1.00
22578;DHT22;11455;52.390;13.028;2022-08-19T04:06:35;22.70;1.00
22578;DHT22;11455;52.390;13.028;2022-08-19T04:09:03;22.80;1.00
22578;DHT22;11455;52.390;13.028;2022-08-19T04:11:33;22.80;1.00
22578;DHT22;11455;52.390;13.028;2022-08-19T04:13:59;22.70;1.00
22578;DHT22;11455;52.390;13.028;2022-08-19T04:16:25;22.80;1.00
22578;DHT22;11455;52.390;13.028;2022-08-19T04:18:55;22.80;1.00
22578;DHT22;11455;52.390;13.028;2022-08-19T04:21:22;22.90;1.00
22578;DHT22;11455;52.390;13.028;2022-08-19T04:23:48;23.00;1.00
22578;DHT22;11455;52.390;13.028;2022-08-19T04:26:14;23.00;1.00
22578;DHT22;11455;52.390;13.028;2022-08-19T04:28:41;23.00;1.00
22578;DHT22;11455;52.390;13.028;2022-08-19T04:31:11;22.90;1.00
22578;DHT22;11455;52.390;13.028;2022-08-19T04:33:37;22.90;1.00
22578;DHT22;11455;52.390;13.028;2022-08-19T04:36:03;23.10;1.00
22578;DHT22;11455;52.390;13.028;2022-08-19T04:38:28;23.30;1.00
22578;DHT22;11455;52.390;13.028;2022-08-19T04:40:54;23.50;99.90
22578;DHT22;11455;52.390;13.028;2022-08-19T04:43:38;23.60;99.90
22578;DHT22;11455;52.390;13.028;2022-08-19T04:46:08;23.60;99.90
22578;DHT22;11455;52.390;13.028;2022-08-19T04:48:34;23.60;99.90
22578;DHT22;11455;52.390;13.028;2022-08-19T04:51:00;23.60;99.90
22578;DHT22;11455;52.390;13.028;2022-08-19T04:53:27;23.60;99.90
22578;DHT22;11455;52.390;13.028;2022-08-19T04:55:58;23.60;99.90
22578;DHT22;11455;52.390;13.028;2022-08-19T04:58:25;23.60;99.90
22578;DHT22;11455;52.390;13.028;2022-08-19T05:00:50;23.60;99.90
22578;DHT22;11455;52.390;13.028;2022-08-19T05:03:16;23.60;99.90
22578;DHT22;11455;52.390;13.028;2022-08-19T05:05:43;23.70;99.90
22578;DHT22;11455;52.390;13.028;2022-08-19T05:08:09;23.90;99.90
22578;DHT22;11455;52.390;13.028;2022-08-19T05:10:38;24.00;99.90
22578;DHT22;11455;52.390;13.028;2022-08-19T05:13:04;23.90;99.90
22578;DHT22;11455;52.390;13.028;2022-08-19T05:15:30;23.90;99.90
22578;DHT22;11455;52.390;13.028;2022-08-19T05:17:56;23.90;99.90
22578;DHT22;11455;52.390;13.028;2022-08-19T05:20:40;23.90;99.90
22578;DHT22;11455;52.390;13.028;2022-08-19T05:23:24;23.90;99.90
22578;DHT22;11455;52.390;13.028;2022-08-19T05:25:50;23.80;99.90
22578;DHT22;11455;52.390;13.028;2022-08-19T05:28:17;23.80;99.90
22578;DHT22;11455;52.390;13.028;2022-08-19T05:30:43;23.60;99.90
22578;DHT22;11455;52.390;13.028;2022-08-19T05:33:10;23.50;99.90
22578;DHT22;11455;52.390;13.028;2022-08-19T05:35:40;23.30;99.90
22578;DHT22;11455;52.390;13.028;2022-08-19T05:38:06;23.20;1.00
22578;DHT22;11455;52.390;13.028;2022-08-19T05:40:37;23.30;99.90
22578;DHT22;11455;52.390;13.028;2022-08-19T05:43:04;23.50;99.90
22578;DHT22;11455;52.390;13.028;2022-08-19T05:45:30;23.40;99.90
22578;DHT22;11455;52.390;13.028;2022-08-19T05:47:56;23.30;1.00
22578;DHT22;11455;52.390;13.028;2022-08-19T05:50:24;23.30;1.00
22578;DHT22;11455;52.390;13.028;2022-08-19T05:52:50;23.20;1.00
22578;DHT22;11455;52.390;13.028;2022-08-19T05:55:18;23.20;1.00
22578;DHT22;11455;52.390;13.028;2022-08-19T05:57:45;23.20;1.00
22578;DHT22;11455;52.390;13.028;2022-08-19T06:00:11;23.00;1.00
22578;DHT22;11455;52.390;13.028;2022-08-19T06:02:38;22.90;1.00
22578;DHT22;11455;52.390;13.028;2022-08-19T06:05:06;23.00;1.00
22578;DHT22;11455;52.390;13.028;2022-08-19T06:07:32;22.90;1.00
22578;DHT22;11455;52.390;13.028;2022-08-19T06:10:00;23.10;1.00
22578;DHT22;11455;52.390;13.028;2022-08-19T06:12:28;23.30;1.00
22578;DHT22;11455;52.390;13.028;2022-08-19T06:14:54;23.30;1.00
22578;DHT22;11455;52.390;13.028;2022-08-19T06:17:20;23.30;1.00
22578;DHT22;11455;52.390;13.028;2022-08-19T06:19:47;23.30;1.00
22578;DHT22;11455;52.390;13.028;2022-08-19T06:22:15;23.30;1.00
22578;DHT22;11455;52.390;13.028;2022-08-19T06:24:41;23.30;1.00
22578;DHT22;11455;52.390;13.028;2022-08-19T06:27:07;23.30;1.00
22578;DHT22;11455;52.390;13.028;2022-08-19T06:29:32;23.30;1.00
22578;DHT22;11455;52.390;13.028;2022-08-19T06:31:59;23.30;1.00
22578;DHT22;11455;52.390;13.028;2022-08-19T06:34:25;23.40;1.00
22578;DHT22;11455;52.390;13.028;2022-08-19T06:36:52;23.50;1.00
22578;DHT22;11455;52.390;13.028;2022-08-19T06:39:22;23.50;1.00
22578;DHT22;11455;52.390;13.028;2022-08-19T06:41:48;23.50;1.00
22578;DHT22;11455;52.390;13.028;2022-08-19T06:44:16;23.50;1.00
22578;DHT22;11455;52.390;13.028;2022-08-19T06:46:42;23.70;1.00
22578;DHT22;11455;52.390;13.028;2022-08-19T06:49:08;23.90;99.90
22578;DHT22;11455;52.390;13.028;2022-08-19T06:51:42;23.80;1.00
22578;DHT22;11455;52.390;13.028;2022-08-19T06:54:11;23.70;1.00
22578;DHT22;11455;52.390;13.028;2022-08-19T06:56:36;23.60;1.00
22578;DHT22;11455;52.390;13.028;2022-08-19T06:59:03;23.90;99.90
22578;DHT22;11455;52.390;13.028;2022-08-19T07:01:29;24.20;99.90
22578;DHT22;11455;52.390;13.028;2022-08-19T07:03:55;24.20;99.90
22578;DHT22;11455;52.390;13.028;2022-08-19T07:06:21;24.10;99.90
22578;DHT22;11455;52.390;13.028;2022-08-19T07:08:47;24.10;99.90
22578;DHT22;11455;52.390;13.028;2022-08-19T07:11:14;24.10;99.90
22578;DHT22;11455;52.390;13.028;2022-08-19T07:13:40;24.00;99.90
22578;DHT22;11455;52.390;13.028;2022-08-19T07:16:16;23.90;1.00
22578;DHT22;11455;52.390;13.028;2022-08-19T07:18:42;23.90;99.90
22578;DHT22;11455;52.390;13.028;2022-08-19T07:21:09;23.90;1.00
22578;DHT22;11455;52.390;13.028;2022-08-19T07:23:36;23.80;1.00
22578;DHT22;11455;52.390;13.028;2022-08-19T07:26:09;23.60;1.00
22578;DHT22;11455;52.390;13.028;2022-08-19T07:28:35;23.60;1.00
22578;DHT22;11455;52.390;13.028;2022-08-19T07:31:06;23.70;1.00
22578;DHT22;11455;52.390;13.028;2022-08-19T07:33:32;23.60;1.00
22578;DHT22;11455;52.390;13.028;2022-08-19T07:35:58;23.60;1.00
22578;DHT22;11455;52.390;13.028;2022-08-19T07:38:24;23.50;1.00
22578;DHT22;11455;52.390;13.028;2022-08-19T07:40:50;23.40;1.00
22578;DHT22;11455;52.390;13.028;2022-08-19T07:43:16;23.50;1.00
22578;DHT22;11455;52.390;13.028;2022-08-19T07:45:53;23.50;1.00
22578;DHT22;11455;52.390;13.028;2022-08-19T07:48:22;23.50;1.00
22578;DHT22;11455;52.390;13.028;2022-08-19T07:50:50;23.60;1.00
22578;DHT22;11455;52.390;13.028;2022-08-19T07:53:16;23.60;1.00
22578;DHT22;11455;52.390;13.028;2022-08-19T07:55:42;23.50;1.00
22578;DHT22;11455;52.390;13.028;2022-08-19T07:58:08;23.50;1.00
22578;DHT22;11455;52.390;13.028;2022-08-19T08:00:33;23.60;1.00
22578;DHT22;11455;52.390;13.028;2022-08-19T08:02:59;23.70;1.00
22578;DHT22;11455;52.390;13.028;2022-08-19T08:05:25;23.60;1.00
22578;DHT22;11455;52.390;13.028;2022-08-19T08:08:09;23.70;1.00
22578;DHT22;11455;52.390;13.028;2022-08-19T08:11:07;23.70;1.00
22578;DHT22;11455;52.390;13.028;2022-08-19T08:13:35;23.80;1.00
22578;DHT22;11455;52.390;13.028;2022-08-19T08:16:02;23.80;1.00
22578;DHT22;11455;52.390;13.028;2022-08-19T08:18:28;23.90;1.00
22578;DHT22;11455;52.390;13.028;2022-08-19T08:20:54;23.90;1.00
22578;DHT22;11455;52.390;13.028;2022-08-19T08:23:20;23.80;1.00
22578;DHT22;11455;52.390;13.028;2022-08-19T08:25:50;23.70;1.00
22578;DHT22;11455;52.390;13.028;2022-08-19T08:28:17;23.70;1.00
22578;DHT22;11455;52.390;13.028;2022-08-19T08:30:42;23.80;1.00
22578;DHT22;11455;52.390;13.028;2022-08-19T08:33:09;23.90;1.00
22578;DHT22;11455;52.390;13.028;2022-08-19T08:35:35;23.90;1.00
22578;DHT22;11455;52.390;13.028;2022-08-19T08:38:00;23.90;1.00
22578;DHT22;11455;52.390;13.028;2022-08-19T08:43:07;23.80;1.00
22578;DHT22;11455;52.390;13.028;2022-08-19T08:45:35;23.80;1.00
22578;DHT22;11455;52.390;13.028;2022-08-19T08:48:02;23.80;1.00
22578;DHT22;11455;52.390;13.028;2022-08-19T08:50:31;23.90;1.00
22578;DHT22;11455;52.390;13.028;2022-08-19T08:53:01;23.80;1.00
22578;DHT22;11455;52.390;13.028;2022-08-19T08:55:29;23.90;1.00
22578;DHT22;11455;52.390;13.028;2022-08-19T08:57:57;23.90;1.00
22578;DHT22;11455;52.390;13.028;2022-08-19T09:00:27;24.00;1.00
22578;DHT22;11455;52.390;13.028;2022-08-19T09:02:57;23.90;1.00
22578;DHT22;11455;52.390;13.028;2022-08-19T09:05:23;24.10;1.00
22578;DHT22;11455;52.390;13.028;2022-08-19T09:10:28;24.20;1.00
22578;DHT22;11455;52.390;13.028;2022-08-19T09:15:32;24.40;99.90
22578;DHT22;11455;52.390;13.028;2022-08-19T09:18:03;24.40;99.90
22578;DHT22;11455;52.390;13.028;2022-08-19T09:20:29;24.20;99.90
22578;DHT22;11455;52.390;13.028;2022-08-19T09:22:56;24.20;1.00
22578;DHT22;11455;52.390;13.028;2022-08-19T09:25:22;24.10;1.00
22578;DHT22;11455;52.390;13.028;2022-08-19T09:27:50;23.90;1.00
22578;DHT22;11455;52.390;13.028;2022-08-19T09:30:24;23.80;1.00
22578;DHT22;11455;52.390;13.028;2022-08-19T09:32:50;23.80;1.00
22578;DHT22;11455;52.390;13.028;2022-08-19T09:35:18;23.70;1.00
22578;DHT22;11455;52.390;13.028;2022-08-19T09:37:44;23.60;1.00
22578;DHT22;11455;52.390;13.028;2022-08-19T09:40:10;23.60;1.00
22578;DHT22;11455;52.390;13.028;2022-08-19T09:42:36;23.50;1.00
22578;DHT22;11455;52.390;13.028;2022-08-19T09:45:02;23.60;1.00
22578;DHT22;11455;52.390;13.028;2022-08-19T09:47:28;23.60;1.00
22578;DHT22;11455;52.390;13.028;2022-08-19T09:49:54;23.50;1.00
22578;DHT22;11455;52.390;13.028;2022-08-19T09:52:20;23.50;1.00
22578;DHT22;11455;52.390;13.028;2022-08-19T09:54:45;23.40;1.00
22578;DHT22;11455;52.390;13.028;2022-08-19T09:57:11;23.30;1.00
22578;DHT22;11455;52.390;13.028;2022-08-19T09:59:36;23.30;1.00
22578;DHT22;11455;52.390;13.028;2022-08-19T10:02:04;23.20;1.00
22578;DHT22;11455;52.390;13.028;2022-08-19T10:04:29;23.30;1.00
22578;DHT22;11455;52.390;13.028;2022-08-19T10:07:14;23.30;1.00
22578;DHT22;11455;52.390;13.028;2022-08-19T10:09:39;23.40;1.00
22578;DHT22;11455;52.390;13.028;2022-08-19T10:12:06;23.30;1.00
22578;DHT22;11455;52.390;13.028;2022-08-19T10:14:32;23.30;1.00
22578;DHT22;11455;52.390;13.028;2022-08-19T10:16:58;23.40;1.00
22578;DHT22;11455;52.390;13.028;2022-08-19T10:19:25;23.30;1.00
22578;DHT22;11455;52.390;13.028;2022-08-19T10:21:52;23.30;1.00
22578;DHT22;11455;52.390;13.028;2022-08-19T10:24:17;23.30;1.00
22578;DHT22;11455;52.390;13.028;2022-08-19T10:26:44;23.30;1.00
22578;DHT22;11455;52.390;13.028;2022-08-19T10:29:12;23.20;1.00
22578;DHT22;11455;52.390;13.028;2022-08-19T10:31:43;23.10;1.00
22578;DHT22;11455;52.390;13.028;2022-08-19T10:34:09;23.20;1.00
22578;DHT22;11455;52.390;13.028;2022-08-19T10:36:35;23.20;1.00
22578;DHT22;11455;52.390;13.028;2022-08-19T10:39:02;23.10;1.00
22578;DHT22;11455;52.390;13.028;2022-08-19T10:41:29;23.20;1.00
22578;DHT22;11455;52.390;13.028;2022-08-19T10:43:56;23.20;1.00
22578;DHT22;11455;52.390;13.028;2022-08-19T10:46:24;23.10;1.00
22578;DHT22;11455;52.390;13.028;2022-08-19T10:48:52;23.10;1.00
22578;DHT22;11455;52.390;13.028;2022-08-19T10:51:18;23.10;1.00
22578;DHT22;11455;52.390;13.028;2022-08-19T10:54:02;23.10;1.00
22578;DHT22;11455;52.390;13.028;2022-08-19T10:56:29;23.10;1.00
22578;DHT22;11455;52.390;13.028;2022-08-19T10:59:16;23.10;1.00
22578;DHT22;11455;52.390;13.028;2022-08-19T11:01:43;23.10;1.00
22578;DHT22;11455;52.390;13.028;2022-08-19T11:04:09;23.10;1.00
22578;DHT22;11455;52.390;13.028;2022-08-19T11:06:36;23.10;1.00
22578;DHT22;11455;52.390;13.028;2022-08-19T11:09:04;23.10;1.00
22578;DHT22;11455;52.390;13.028;2022-08-19T11:11:30;23.00;1.00
22578;DHT22;11455;52.390;13.028;2022-08-19T11:13:57;23.00;1.00
22578;DHT22;11455;52.390;13.028;2022-08-19T11:16:24;23.10;1.00
22578;DHT22;11455;52.390;13.028;2022-08-19T11:18:51;23.10;1.00
22578;DHT22;11455;52.390;13.028;2022-08-19T11:23:49;23.10;1.00
22578;DHT22;11455;52.390;13.028;2022-08-19T11:26:16;23.10;1.00
22578;DHT22;11455;52.390;13.028;2022-08-19T11:28:42;23.00;1.00
22578;DHT22;11455;52.390;13.028;2022-08-19T11:31:11;22.90;1.00
22578;DHT22;11455;52.390;13.028;2022-08-19T11:33:37;22.90;1.00
22578;DHT22;11455;52.390;13.028;2022-08-19T11:36:02;22.90;1.00
22578;DHT22;11455;52.390;13.028;2022-08-19T11:38:28;22.80;1.00
22578;DHT22;11455;52.390;13.028;2022-08-19T11:40:58;22.80;1.00
22578;DHT22;11455;52.390;13.028;2022-08-19T11:43:24;22.70;1.00
22578;DHT22;11455;52.390;13.028;2022-08-19T11:45:52;22.70;1.00
22578;DHT22;11455;52.390;13.028;2022-08-19T11:48:18;22.70;1.00
22578;DHT22;11455;52.390;13.028;2022-08-19T11:50:48;22.70;1.00
22578;DHT22;11455;52.390;13.028;2022-08-19T11:53:13;22.80;1.00
22578;DHT22;11455;52.390;13.028;2022-08-19T11:55:39;22.70;1.00
22578;DHT22;11455;52.390;13.028;2022-08-19T11:58:05;22.80;1.00
22578;DHT22;11455;52.390;13.028;2022-08-19T12:00:32;22.70;1.00
22578;DHT22;11455;52.390;13.028;2022-08-19T12:02:58;22.70;1.00
22578;DHT22;11455;52.390;13.028;2022-08-19T12:05:24;22.60;1.00
22578;DHT22;11455;52.390;13.028;2022-08-19T12:07:49;22.60;1.00
22578;DHT22;11455;52.390;13.028;2022-08-19T12:10:15;22.60;1.00
22578;DHT22;11455;52.390;13.028;2022-08-19T12:12:40;22.50;1.00
22578;DHT22;11455;52.390;13.028;2022-08-19T12:15:08;22.50;1.00
22578;DHT22;11455;52.390;13.028;2022-08-19T12:17:34;22.60;1.00
22578;DHT22;11455;52.390;13.028;2022-08-19T12:19:59;22.60;1.00
22578;DHT22;11455;52.390;13.028;2022-08-19T12:22:27;22.60;1.00
22578;DHT22;11455;52.390;13.028;2022-08-19T12:24:53;22.60;1.00
22578;DHT22;11455;52.390;13.028;2022-08-19T12:27:20;22.60;1.00
22578;DHT22;11455;52.390;13.028;2022-08-19T12:29:45;22.60;1.00
22578;DHT22;11455;52.390;13.028;2022-08-19T12:32:11;22.70;1.00
22578;DHT22;11455;52.390;13.028;2022-08-19T12:34:37;22.70;1.00
22578;DHT22;11455;52.390;13.028;2022-08-19T12:37:06;22.70;1.00
22578;DHT22;11455;52.390;13.028;2022-08-19T12:39:35;22.70;1.00
22578;DHT22;11455;52.390;13.028;2022-08-19T12:42:02;22.70;1.00
22578;DHT22;11455;52.390;13.028;2022-08-19T12:44:28;22.60;1.00
22578;DHT22;11455;52.390;13.028;2022-08-19T12:46:54;22.70;1.00
22578;DHT22;11455;52.390;13.028;2022-08-19T12:49:20;22.80;1.00
22578;DHT22;11455;52.390;13.028;2022-08-19T12:51:45;22.80;1.00
22578;DHT22;11455;52.390;13.028;2022-08-19T12:54:11;22.90;1.00
22578;DHT22;11455;52.390;13.028;2022-08-19T12:56:37;22.90;1.00
22578;DHT22;11455;52.390;13.028;2022-08-19T12:59:03;22.90;1.00
22578;DHT22;11455;52.390;13.028;2022-08-19T13:01:30;23.00;1.00
22578;DHT22;11455;52.390;13.028;2022-08-19T13:03:58;23.00;1.00
22578;DHT22;11455;52.390;13.028;2022-08-19T13:06:24;23.00;1.00
22578;DHT22;11455;52.390;13.028;2022-08-19T13:08:50;23.10;1.00
22578;DHT22;11455;52.390;13.028;2022-08-19T13:11:17;23.20;1.00
22578;DHT22;11455;52.390;13.028;2022-08-19T13:13:44;23.20;1.00
22578;DHT22;11455;52.390;13.028;2022-08-19T13:16:12;23.30;1.00
22578;DHT22;11455;52.390;13.028;2022-08-19T13:18:38;23.20;1.00
22578;DHT22;11455;52.390;13.028;2022-08-19T13:21:05;23.20;1.00
22578;DHT22;11455;52.390;13.028;2022-08-19T13:23:32;23.20;1.00
22578;DHT22;11455;52.390;13.028;2022-08-19T13:25:58;23.10;1.00
22578;DHT22;11455;52.390;13.028;2022-08-19T13:28:24;23.20;1.00
22578;DHT22;11455;52.390;13.028;2022-08-19T13:30:51;23.30;1.00
22578;DHT22;11455;52.390;13.028;2022-08-19T13:33:35;23.20;1.00
22578;DHT22;11455;52.390;13.028;2022-08-19T13:36:00;23.20;1.00
22578;DHT22;11455;52.390;13.028;2022-08-19T13:38:28;23.30;1.00
22578;DHT22;11455;52.390;13.028;2022-08-19T13:41:03;23.20;1.00
22578;DHT22;11455;52.390;13.028;2022-08-19T13:43:29;23.20;1.00
22578;DHT22;11455;52.390;13.028;2022-08-19T13:45:54;23.10;1.00
22578;DHT22;11455;52.390;13.028;2022-08-19T13:48:24;23.20;1.00
22578;DHT22;11455;52.390;13.028;2022-08-19T13:50:51;23.20;1.00
22578;DHT22;11455;52.390;13.028;2022-08-19T13:53:17;23.30;1.00
22578;DHT22;11455;52.390;13.028;2022-08-19T13:55:43;23.30;1.00
22578;DHT22;11455;52.390;13.028;2022-08-19T13:58:09;23.30;1.00
22578;DHT22;11455;52.390;13.028;2022-08-19T14:00:37;23.20;1.00
22578;DHT22;11455;52.390;13.028;2022-08-19T14:03:04;23.10;1.00
22578;DHT22;11455;52.390;13.028;2022-08-19T14:05:30;23.10;1.00
22578;DHT22;11455;52.390;13.028;2022-08-19T14:07:56;23.10;1.00
22578;DHT22;11455;52.390;13.028;2022-08-19T14:10:22;23.10;1.00
22578;DHT22;11455;52.390;13.028;2022-08-19T14:12:48;23.10;1.00
22578;DHT22;11455;52.390;13.028;2022-08-19T14:15:14;23.10;1.00
22578;DHT22;11455;52.390;13.028;2022-08-19T14:17:42;23.10;1.00
22578;DHT22;11455;52.390;13.028;2022-08-19T14:20:08;23.20;1.00
22578;DHT22;11455;52.390;13.028;2022-08-19T14:22:38;23.20;1.00
22578;DHT22;11455;52.390;13.028;2022-08-19T14:25:05;23.20;1.00
22578;DHT22;11455;52.390;13.028;2022-08-19T14:27:35;23.20;1.00
22578;DHT22;11455;52.390;13.028;2022-08-19T14:30:04;23.20;1.00
22578;DHT22;11455;52.390;13.028;2022-08-19T14:32:30;23.10;1.00
22578;DHT22;11455;52.390;13.028;2022-08-19T14:34:56;23.00;1.00
22578;DHT22;11455;52.390;13.028;2022-08-19T14:37:24;23.00;1.00
22578;DHT22;11455;52.390;13.028;2022-08-19T14:39:50;23.00;1.00
22578;DHT22;11455;52.390;13.028;2022-08-19T14:42:16;23.00;1.00
22578;DHT22;11455;52.390;13.028;2022-08-19T14:44:42;23.00;1.00
22578;DHT22;11455;52.390;13.028;2022-08-19T14:47:08;23.10;1.00
22578;DHT22;11455;52.390;13.028;2022-08-19T14:49:34;23.20;1.00
22578;DHT22;11455;52.390;13.028;2022-08-19T14:52:00;23.20;1.00
22578;DHT22;11455;52.390;13.028;2022-08-19T14:54:28;23.10;1.00
22578;DHT22;11455;52.390;13.028;2022-08-19T14:56:53;23.20;1.00
22578;DHT22;11455;52.390;13.028;2022-08-19T14:59:19;23.30;1.00
22578;DHT22;11455;52.390;13.028;2022-08-19T15:01:44;23.30;1.00
22578;DHT22;11455;52.390;13.028;2022-08-19T15:04:10;23.40;1.00
22578;DHT22;11455;52.390;13.028;2022-08-19T15:06:38;23.40;1.00
22578;DHT22;11455;52.390;13.028;2022-08-19T15:09:04;23.60;1.00
22578;DHT22;11455;52.390;13.028;2022-08-19T15:11:30;23.60;1.00
22578;DHT22;11455;52.390;13.028;2022-08-19T15:13:58;23.60;1.00
22578;DHT22;11455;52.390;13.028;2022-08-19T15:16:24;23.70;1.00
22578;DHT22;11455;52.390;13.028;2022-08-19T15:18:51;23.70;1.00
22578;DHT22;11455;52.390;13.028;2022-08-19T15:21:20;23.70;1.00
22578;DHT22;11455;52.390;13.028;2022-08-19T15:23:47;23.70;1.00
22578;DHT22;11455;52.390;13.028;2022-08-19T15:26:16;23.60;1.00
22578;DHT22;11455;52.390;13.028;2022-08-19T15:28:43;23.60;1.00
22578;DHT22;11455;52.390;13.028;2022-08-19T15:31:09;23.50;1.00
22578;DHT22;11455;52.390;13.028;2022-08-19T15:33:35;23.50;1.00
22578;DHT22;11455;52.390;13.028;2022-08-19T15:36:03;23.40;1.00
22578;DHT22;11455;52.390;13.028;2022-08-19T15:38:30;23.30;1.00